sensor_id;sensor_type;location;lat;lon;timestamp;temperature;humidity
25504;DHT22;13410;52.114;5.718;2024-03-29T00:01:17;12.60;99.90
25504;DHT22;13410;52.114;5.718;2024-03-29T00:03:42;12.60;99.90
25504;DHT22;13410;52.114;5.718;2024-03-29T00:06:08;12.60;99.90
25504;DHT22;13410;52.114;5.718;2024-03-29T00:08:34;12.50;99.90
25504;DHT22;13410;52.114;5.718;2024-03-29T00:10:59;12.50;99.90
25504;DHT22;13410;52.114;5.718;2024-03-29T00:13:25;12.50;99.90
25504;DHT22;13410;52.114;5.718;2024-03-29T00:15:51;12.50;99.90
25504;DHT22;13410;52.114;5.718;2024-03-29T00:18:16;12.40;99.90
25504;DHT22;13410;52.114;5.718;2024-03-29T00:20:42;12.40;99.90
25504;DHT22;13410;52.114;5.718;2024-03-29T00:23:08;12.30;99.90
25504;DHT22;13410;52.114;5.718;2024-03-29T00:25:33;12.40;99.90
25504;DHT22;13410;52.114;5.718;2024-03-29T00:27:59;12.20;99.90
25504;DHT22;13410;52.114;5.718;2024-03-29T00:30:26;12.30;99.90
25504;DHT22;13410;52.114;5.718;2024-03-29T00:32:52;12.20;99.90
25504;DHT22;13410;52.114;5.718;2024-03-29T00:35:17;12.20;99.90
25504;DHT22;13410;52.114;5.718;2024-03-29T00:37:44;12.30;99.90
25504;DHT22;13410;52.114;5.718;2024-03-29T00:40:10;12.30;99.90
25504;DHT22;13410;52.114;5.718;2024-03-29T00:42:36;12.30;99.90
25504;DHT22;13410;52.114;5.718;2024-03-29T00:45:02;12.50;99.90
25504;DHT22;13410;52.114;5.718;2024-03-29T00:47:27;12.40;99.90
25504;DHT22;13410;52.114;5.718;2024-03-29T00:49:53;12.50;99.90
25504;DHT22;13410;52.114;5.718;2024-03-29T00:52:19;12.60;99.90
25504;DHT22;13410;52.114;5.718;2024-03-29T00:54:44;12.70;99.90
25504;DHT22;13410;52.114;5.718;2024-03-29T00:57:10;12.50;99.90
25504;DHT22;13410;52.114;5.718;2024-03-29T00:59:38;12.50;99.90
25504;DHT22;13410;52.114;5.718;2024-03-29T01:02:04;12.30;99.90
25504;DHT22;13410;52.114;5.718;2024-03-29T01:04:29;12.20;99.90
25504;DHT22;13410;52.114;5.718;2024-03-29T01:06:56;12.30;99.90
25504;DHT22;13410;52.114;5.718;2024-03-29T01:09:23;12.30;99.90
25504;DHT22;13410;52.114;5.718;2024-03-29T01:11:50;12.20;99.90
25504;DHT22;13410;52.114;5.718;2024-03-29T01:14:18;12.20;99.90
25504;DHT22;13410;52.114;5.718;2024-03-29T01:16:43;12.30;99.90
25504;DHT22;13410;52.114;5.718;2024-03-29T01:19:09;12.30;99.90
25504;DHT22;13410;52.114;5.718;2024-03-29T01:21:35;12.20;99.90
25504;DHT22;13410;52.114;5.718;2024-03-29T01:24:01;12.10;99.90
25504;DHT22;13410;52.114;5.718;2024-03-29T01:26:27;12.10;99.90
25504;DHT22;13410;52.114;5.718;2024-03-29T01:28:52;12.00;99.90
25504;DHT22;13410;52.114;5.718;2024-03-29T01:31:18;12.10;99.90
25504;DHT22;13410;52.114;5.718;2024-03-29T01:33:43;11.90;99.90
25504;DHT22;13410;52.114;5.718;2024-03-29T01:36:09;11.80;99.90
25504;DHT22;13410;52.114;5.718;2024-03-29T01:38:35;11.80;99.90
25504;DHT22;13410;52.114;5.718;2024-03-29T01:41:01;12.10;99.90
25504;DHT22;13410;52.114;5.718;2024-03-29T01:43:26;12.10;99.90
25504;DHT22;13410;52.114;5.718;2024-03-29T01:45:56;12.20;99.90
25504;DHT22;13410;52.114;5.718;2024-03-29T01:48:26;12.10;99.90
25504;DHT22;13410;52.114;5.718;2024-03-29T01:50:56;12.10;99.90
25504;DHT22;13410;52.114;5.718;2024-03-29T01:53:23;12.30;99.90
25504;DHT22;13410;52.114;5.718;2024-03-29T01:55:49;12.20;99.90
25504;DHT22;13410;52.114;5.718;2024-03-29T01:58:16;12.00;99.90
25504;DHT22;13410;52.114;5.718;2024-03-29T02:00:51;12.10;99.90
25504;DHT22;13410;52.114;5.718;2024-03-29T02:03:16;12.00;99.90
25504;DHT22;13410;52.114;5.718;2024-03-29T02:05:43;11.80;99.90
25504;DHT22;13410;52.114;5.718;2024-03-29T02:08:10;11.90;99.90
25504;DHT22;13410;52.114;5.718;2024-03-29T02:10:36;12.00;99.90
25504;DHT22;13410;52.114;5.718;2024-03-29T02:13:03;12.10;99.90
25504;DHT22;13410;52.114;5.718;2024-03-29T02:15:30;12.10;99.90
25504;DHT22;13410;52.114;5.718;2024-03-29T02:17:56;12.30;99.90
25504;DHT22;13410;52.114;5.718;2024-03-29T02:20:22;12.40;99.90
25504;DHT22;13410;52.114;5.718;2024-03-29T02:22:54;12.40;99.90
25504;DHT22;13410;52.114;5.718;2024-03-29T02:25:20;12.40;99.90
25504;DHT22;13410;52.114;5.718;2024-03-29T02:27:47;12.10;99.90
25504;DHT22;13410;52.114;5.718;2024-03-29T02:30:19;11.90;99.90
25504;DHT22;13410;52.114;5.718;2024-03-29T02:32:46;11.90;99.90
25504;DHT22;13410;52.114;5.718;2024-03-29T02:35:11;12.00;99.90
25504;DHT22;13410;52.114;5.718;2024-03-29T02:37:37;12.10;99.90
25504;DHT22;13410;52.114;5.718;2024-03-29T02:40:04;12.10;99.90
25504;DHT22;13410;52.114;5.718;2024-03-29T02:42:30;12.00;99.90
25504;DHT22;13410;52.114;5.718;2024-03-29T02:44:56;12.10;99.90
25504;DHT22;13410;52.114;5.718;2024-03-29T02:47:23;12.10;99.90
25504;DHT22;13410;52.114;5.718;2024-03-29T02:49:48;12.10;99.90
25504;DHT22;13410;52.114;5.718;2024-03-29T02:52:14;12.00;99.90
25504;DHT22;13410;52.114;5.718;2024-03-29T02:54:43;12.00;99.90
25504;DHT22;13410;52.114;5.718;2024-03-29T02:57:08;12.10;99.90
25504;DHT22;13410;52.114;5.718;2024-03-29T02:59:35;12.10;99.90
25504;DHT22;13410;52.114;5.718;2024-03-29T03:02:01;12.10;99.90
25504;DHT22;13410;52.114;5.718;2024-03-29T03:04:26;12.30;99.90
25504;DHT22;13410;52.114;5.718;2024-03-29T03:06:52;12.20;99.90
25504;DHT22;13410;52.114;5.718;2024-03-29T03:09:17;12.30;99.90
25504;DHT22;13410;52.114;5.718;2024-03-29T03:12:01;12.40;99.90
25504;DHT22;13410;52.114;5.718;2024-03-29T03:14:27;12.40;99.90
25504;DHT22;13410;52.114;5.718;2024-03-29T03:16:53;12.50;99.90
25504;DHT22;13410;52.114;5.718;2024-03-29T03:19:18;12.40;99.90
25504;DHT22;13410;52.114;5.718;2024-03-29T03:21:44;12.40;99.90
25504;DHT22;13410;52.114;5.718;2024-03-29T03:24:10;12.40;99.90
25504;DHT22;13410;52.114;5.718;2024-03-29T03:26:37;12.50;99.90
25504;DHT22;13410;52.114;5.718;2024-03-29T03:29:03;12.50;99.90
25504;DHT22;13410;52.114;5.718;2024-03-29T03:31:31;12.50;99.90
25504;DHT22;13410;52.114;5.718;2024-03-29T03:33:57;12.50;99.90
25504;DHT22;13410;52.114;5.718;2024-03-29T03:36:22;12.50;99.90
25504;DHT22;13410;52.114;5.718;2024-03-29T03:38:49;12.50;99.90
25504;DHT22;13410;52.114;5.718;2024-03-29T03:41:15;12.60;99.90
25504;DHT22;13410;52.114;5.718;2024-03-29T03:43:40;12.40;99.90
25504;DHT22;13410;52.114;5.718;2024-03-29T03:46:06;12.50;99.90
25504;DHT22;13410;52.114;5.718;2024-03-29T03:48:33;12.30;99.90
25504;DHT22;13410;52.114;5.718;2024-03-29T03:50:58;12.30;99.90
25504;DHT22;13410;52.114;5.718;2024-03-29T03:53:24;12.30;99.90
25504;DHT22;13410;52.114;5.718;2024-03-29T03:55:50;12.30;99.90
25504;DHT22;13410;52.114;5.718;2024-03-29T03:58:15;12.40;99.90
25504;DHT22;13410;52.114;5.718;2024-03-29T04:00:41;12.60;99.90
25504;DHT22;13410;52.114;5.718;2024-03-29T04:03:07;12.70;99.90
25504;DHT22;13410;52.114;5.718;2024-03-29T04:05:36;12.70;99.90
25504;DHT22;13410;52.114;5.718;2024-03-29T04:08:02;12.60;99.90
25504;DHT22;13410;52.114;5.718;2024-03-29T04:10:29;12.70;99.90
25504;DHT22;13410;52.114;5.718;2024-03-29T04:12:55;12.90;99.90
25504;DHT22;13410;52.114;5.718;2024-03-29T04:15:20;13.00;99.90
25504;DHT22;13410;52.114;5.718;2024-03-29T04:17:46;13.10;99.90
25504;DHT22;13410;52.114;5.718;2024-03-29T04:20:11;13.10;99.90
25504;DHT22;13410;52.114;5.718;2024-03-29T04:22:37;13.00;99.90
25504;DHT22;13410;52.114;5.718;2024-03-29T04:25:03;13.10;99.90
25504;DHT22;13410;52.114;5.718;2024-03-29T04:27:28;12.90;99.90
25504;DHT22;13410;52.114;5.718;2024-03-29T04:29:54;13.00;99.90
25504;DHT22;13410;52.114;5.718;2024-03-29T04:32:21;13.10;99.90
25504;DHT22;13410;52.114;5.718;2024-03-29T04:34:47;12.90;99.90
25504;DHT22;13410;52.114;5.718;2024-03-29T04:37:14;12.80;99.90
25504;DHT22;13410;52.114;5.718;2024-03-29T04:39:39;12.90;99.90
25504;DHT22;13410;52.114;5.718;2024-03-29T04:42:05;12.70;99.90
25504;DHT22;13410;52.114;5.718;2024-03-29T04:44:31;12.70;99.90
25504;DHT22;13410;52.114;5.718;2024-03-29T04:46:57;12.70;99.90
25504;DHT22;13410;52.114;5.718;2024-03-29T04:49:23;12.60;99.90
25504;DHT22;13410;52.114;5.718;2024-03-29T04:52:09;12.80;99.90
25504;DHT22;13410;52.114;5.718;2024-03-29T04:54:35;13.00;99.90
25504;DHT22;13410;52.114;5.718;2024-03-29T04:57:01;13.00;99.90
25504;DHT22;13410;52.114;5.718;2024-03-29T04:59:28;13.20;99.90
25504;DHT22;13410;52.114;5.718;2024-03-29T05:01:55;13.30;99.90
25504;DHT22;13410;52.114;5.718;2024-03-29T05:04:22;13.50;99.90
25504;DHT22;13410;52.114;5.718;2024-03-29T05:07:00;13.30;99.90
25504;DHT22;13410;52.114;5.718;2024-03-29T05:09:25;13.20;99.90
25504;DHT22;13410;52.114;5.718;2024-03-29T05:11:51;13.00;99.90
25504;DHT22;13410;52.114;5.718;2024-03-29T05:14:19;12.80;99.90
25504;DHT22;13410;52.114;5.718;2024-03-29T05:16:45;12.80;99.90
25504;DHT22;13410;52.114;5.718;2024-03-29T05:19:14;12.80;99.90
25504;DHT22;13410;52.114;5.718;2024-03-29T05:21:40;12.70;99.90
25504;DHT22;13410;52.114;5.718;2024-03-29T05:24:06;12.90;99.90
25504;DHT22;13410;52.114;5.718;2024-03-29T05:26:33;12.90;99.90
25504;DHT22;13410;52.114;5.718;2024-03-29T05:28:58;12.90;99.90
25504;DHT22;13410;52.114;5.718;2024-03-29T05:31:25;13.10;99.90
25504;DHT22;13410;52.114;5.718;2024-03-29T05:33:51;13.00;99.90
25504;DHT22;13410;52.114;5.718;2024-03-29T05:36:16;13.00;99.90
25504;DHT22;13410;52.114;5.718;2024-03-29T05:38:43;12.90;99.90
25504;DHT22;13410;52.114;5.718;2024-03-29T05:41:08;12.90;99.90
25504;DHT22;13410;52.114;5.718;2024-03-29T05:43:34;13.00;99.90
25504;DHT22;13410;52.114;5.718;2024-03-29T05:46:00;13.00;99.90
25504;DHT22;13410;52.114;5.718;2024-03-29T05:48:29;13.10;99.90
25504;DHT22;13410;52.114;5.718;2024-03-29T05:50:55;12.80;99.90
25504;DHT22;13410;52.114;5.718;2024-03-29T05:53:20;12.70;99.90
25504;DHT22;13410;52.114;5.718;2024-03-29T05:55:46;12.70;99.90
25504;DHT22;13410;52.114;5.718;2024-03-29T05:58:11;12.50;99.90
25504;DHT22;13410;52.114;5.718;2024-03-29T06:00:42;12.60;99.90
25504;DHT22;13410;52.114;5.718;2024-03-29T06:03:09;12.60;99.90
25504;DHT22;13410;52.114;5.718;2024-03-29T06:05:35;12.80;99.90
25504;DHT22;13410;52.114;5.718;2024-03-29T06:08:01;12.80;99.90
25504;DHT22;13410;52.114;5.718;2024-03-29T06:10:27;12.80;99.90
25504;DHT22;13410;52.114;5.718;2024-03-29T06:12:53;12.70;99.90
25504;DHT22;13410;52.114;5.718;2024-03-29T06:15:19;13.00;99.90
25504;DHT22;13410;52.114;5.718;2024-03-29T06:18:03;13.20;99.90
25504;DHT22;13410;52.114;5.718;2024-03-29T06:20:29;13.00;99.90
25504;DHT22;13410;52.114;5.718;2024-03-29T06:22:55;13.20;99.90
25504;DHT22;13410;52.114;5.718;2024-03-29T06:25:20;13.00;99.90
25504;DHT22;13410;52.114;5.718;2024-03-29T06:27:46;13.00;99.90
25504;DHT22;13410;52.114;5.718;2024-03-29T06:30:15;12.90;99.90
25504;DHT22;13410;52.114;5.718;2024-03-29T06:32:42;12.80;99.90
25504;DHT22;13410;52.114;5.718;2024-03-29T06:35:08;12.70;99.90
25504;DHT22;13410;52.114;5.718;2024-03-29T06:37:33;12.90;99.90
25504;DHT22;13410;52.114;5.718;2024-03-29T06:39:59;12.80;99.90
25504;DHT22;13410;52.114;5.718;2024-03-29T06:42:25;13.00;99.90
25504;DHT22;13410;52.114;5.718;2024-03-29T06:44:51;12.80;99.90
25504;DHT22;13410;52.114;5.718;2024-03-29T06:47:18;12.70;99.90
25504;DHT22;13410;52.114;5.718;2024-03-29T06:49:45;12.70;99.90
25504;DHT22;13410;52.114;5.718;2024-03-29T06:52:11;12.90;99.90
25504;DHT22;13410;52.114;5.718;2024-03-29T06:54:37;13.00;99.90
25504;DHT22;13410;52.114;5.718;2024-03-29T06:57:03;13.10;99.90
25504;DHT22;13410;52.114;5.718;2024-03-29T06:59:30;13.30;99.90
25504;DHT22;13410;52.114;5.718;2024-03-29T07:01:55;13.40;99.90
25504;DHT22;13410;52.114;5.718;2024-03-29T07:04:22;13.30;99.90
25504;DHT22;13410;52.114;5.718;2024-03-29T07:06:51;13.30;99.90
25504;DHT22;13410;52.114;5.718;2024-03-29T07:09:18;13.10;99.90
25504;DHT22;13410;52.114;5.718;2024-03-29T07:11:49;12.90;99.90
25504;DHT22;13410;52.114;5.718;2024-03-29T07:14:17;13.00;99.90
25504;DHT22;13410;52.114;5.718;2024-03-29T07:16:44;12.90;99.90
25504;DHT22;13410;52.114;5.718;2024-03-29T07:19:10;12.90;99.90
25504;DHT22;13410;52.114;5.718;2024-03-29T07:21:44;13.10;99.90
25504;DHT22;13410;52.114;5.718;2024-03-29T07:24:10;13.10;99.90
25504;DHT22;13410;52.114;5.718;2024-03-29T07:26:36;13.30;99.90
25504;DHT22;13410;52.114;5.718;2024-03-29T07:29:02;13.30;99.90
25504;DHT22;13410;52.114;5.718;2024-03-29T07:31:30;13.50;99.90
25504;DHT22;13410;52.114;5.718;2024-03-29T07:33:56;13.50;99.90
25504;DHT22;13410;52.114;5.718;2024-03-29T07:36:22;13.50;99.90
25504;DHT22;13410;52.114;5.718;2024-03-29T07:38:50;13.30;99.90
25504;DHT22;13410;52.114;5.718;2024-03-29T07:41:16;13.20;99.90
25504;DHT22;13410;52.114;5.718;2024-03-29T07:43:52;13.20;99.90
25504;DHT22;13410;52.114;5.718;2024-03-29T07:46:20;13.30;99.90
25504;DHT22;13410;52.114;5.718;2024-03-29T07:48:47;13.30;99.90
25504;DHT22;13410;52.114;5.718;2024-03-29T07:51:13;13.20;99.90
25504;DHT22;13410;52.114;5.718;2024-03-29T07:53:39;13.30;99.90
25504;DHT22;13410;52.114;5.718;2024-03-29T07:56:05;13.30;99.90
25504;DHT22;13410;52.114;5.718;2024-03-29T07:58:31;13.20;99.90
25504;DHT22;13410;52.114;5.718;2024-03-29T08:00:57;13.20;99.90
25504;DHT22;13410;52.114;5.718;2024-03-29T08:03:23;13.10;99.90
25504;DHT22;13410;52.114;5.718;2024-03-29T08:05:59;13.30;99.90
25504;DHT22;13410;52.114;5.718;2024-03-29T08:08:26;13.40;99.90
25504;DHT22;13410;52.114;5.718;2024-03-29T08:10:55;13.50;99.90
25504;DHT22;13410;52.114;5.718;2024-03-29T08:13:21;13.80;99.90
25504;DHT22;13410;52.114;5.718;2024-03-29T08:15:48;13.90;99.90
25504;DHT22;13410;52.114;5.718;2024-03-29T08:18:13;14.10;99.90
25504;DHT22;13410;52.114;5.718;2024-03-29T08:20:39;14.30;99.90
25504;DHT22;13410;52.114;5.718;2024-03-29T08:23:05;14.30;99.90
25504;DHT22;13410;52.114;5.718;2024-03-29T08:25:30;14.20;99.90
25504;DHT22;13410;52.114;5.718;2024-03-29T08:27:56;14.10;99.90
25504;DHT22;13410;52.114;5.718;2024-03-29T08:30:25;14.10;99.90
25504;DHT22;13410;52.114;5.718;2024-03-29T08:32:51;14.20;99.90
25504;DHT22;13410;52.114;5.718;2024-03-29T08:35:18;14.10;99.90
25504;DHT22;13410;52.114;5.718;2024-03-29T08:37:44;14.20;99.90
25504;DHT22;13410;52.114;5.718;2024-03-29T08:40:10;14.30;99.90
25504;DHT22;13410;52.114;5.718;2024-03-29T08:42:36;14.40;99.90
25504;DHT22;13410;52.114;5.718;2024-03-29T08:45:03;14.10;99.90
25504;DHT22;13410;52.114;5.718;2024-03-29T08:47:31;14.20;99.90
25504;DHT22;13410;52.114;5.718;2024-03-29T08:49:58;14.70;99.90
25504;DHT22;13410;52.114;5.718;2024-03-29T08:52:24;15.10;99.90
25504;DHT22;13410;52.114;5.718;2024-03-29T08:54:50;15.30;99.90
25504;DHT22;13410;52.114;5.718;2024-03-29T08:57:17;15.50;99.90
25504;DHT22;13410;52.114;5.718;2024-03-29T08:59:42;15.50;99.90
25504;DHT22;13410;52.114;5.718;2024-03-29T09:02:08;15.50;99.90
25504;DHT22;13410;52.114;5.718;2024-03-29T09:04:34;15.50;99.90
25504;DHT22;13410;52.114;5.718;2024-03-29T09:07:01;15.70;99.90
25504;DHT22;13410;52.114;5.718;2024-03-29T09:09:31;15.90;99.90
25504;DHT22;13410;52.114;5.718;2024-03-29T09:11:57;15.80;99.90
25504;DHT22;13410;52.114;5.718;2024-03-29T09:14:23;15.60;99.90
25504;DHT22;13410;52.114;5.718;2024-03-29T09:16:50;15.50;99.90
25504;DHT22;13410;52.114;5.718;2024-03-29T09:19:15;15.60;99.90
25504;DHT22;13410;52.114;5.718;2024-03-29T09:21:41;15.80;99.90
25504;DHT22;13410;52.114;5.718;2024-03-29T09:24:07;16.00;99.90
25504;DHT22;13410;52.114;5.718;2024-03-29T09:26:33;16.10;99.90
25504;DHT22;13410;52.114;5.718;2024-03-29T09:28:59;16.00;99.90
25504;DHT22;13410;52.114;5.718;2024-03-29T09:31:24;16.00;99.90
25504;DHT22;13410;52.114;5.718;2024-03-29T09:33:50;16.10;99.90
25504;DHT22;13410;52.114;5.718;2024-03-29T09:36:22;16.50;99.90
25504;DHT22;13410;52.114;5.718;2024-03-29T09:38:51;16.80;99.90
25504;DHT22;13410;52.114;5.718;2024-03-29T09:41:18;17.00;99.90
25504;DHT22;13410;52.114;5.718;2024-03-29T09:43:47;17.10;99.90
25504;DHT22;13410;52.114;5.718;2024-03-29T09:46:20;17.10;99.90
25504;DHT22;13410;52.114;5.718;2024-03-29T09:48:47;17.20;99.90
25504;DHT22;13410;52.114;5.718;2024-03-29T09:51:14;17.30;99.90
25504;DHT22;13410;52.114;5.718;2024-03-29T09:53:41;17.50;99.90
25504;DHT22;13410;52.114;5.718;2024-03-29T09:56:09;17.80;99.90
25504;DHT22;13410;52.114;5.718;2024-03-29T09:58:36;18.00;99.90
25504;DHT22;13410;52.114;5.718;2024-03-29T10:01:03;17.90;99.90
25504;DHT22;13410;52.114;5.718;2024-03-29T10:03:29;17.60;99.90
25504;DHT22;13410;52.114;5.718;2024-03-29T10:06:03;17.70;99.90
25504;DHT22;13410;52.114;5.718;2024-03-29T10:08:30;17.70;99.90
25504;DHT22;13410;52.114;5.718;2024-03-29T10:10:57;17.80;99.90
25504;DHT22;13410;52.114;5.718;2024-03-29T10:13:23;18.00;99.90
25504;DHT22;13410;52.114;5.718;2024-03-29T10:15:52;18.20;99.90
25504;DHT22;13410;52.114;5.718;2024-03-29T10:18:21;18.40;99.90
25504;DHT22;13410;52.114;5.718;2024-03-29T10:20:47;18.30;99.90
25504;DHT22;13410;52.114;5.718;2024-03-29T10:23:13;18.40;99.90
25504;DHT22;13410;52.114;5.718;2024-03-29T10:25:43;18.40;99.90
25504;DHT22;13410;52.114;5.718;2024-03-29T10:28:11;18.30;99.90
25504;DHT22;13410;52.114;5.718;2024-03-29T10:30:38;18.40;99.90
25504;DHT22;13410;52.114;5.718;2024-03-29T10:33:04;18.50;99.90
25504;DHT22;13410;52.114;5.718;2024-03-29T10:35:30;18.70;99.90
25504;DHT22;13410;52.114;5.718;2024-03-29T10:37:55;19.00;99.90
25504;DHT22;13410;52.114;5.718;2024-03-29T10:40:21;19.20;99.90
25504;DHT22;13410;52.114;5.718;2024-03-29T10:42:50;19.30;99.90
25504;DHT22;13410;52.114;5.718;2024-03-29T10:45:16;19.50;99.90
25504;DHT22;13410;52.114;5.718;2024-03-29T10:47:46;19.70;99.90
25504;DHT22;13410;52.114;5.718;2024-03-29T10:50:13;19.90;99.90
25504;DHT22;13410;52.114;5.718;2024-03-29T10:52:44;19.80;99.90
25504;DHT22;13410;52.114;5.718;2024-03-29T10:55:10;19.80;99.90
25504;DHT22;13410;52.114;5.718;2024-03-29T10:57:41;19.90;99.90
25504;DHT22;13410;52.114;5.718;2024-03-29T11:00:11;19.70;99.90
25504;DHT22;13410;52.114;5.718;2024-03-29T11:03:08;19.50;99.90
25504;DHT22;13410;52.114;5.718;2024-03-29T11:05:37;19.50;99.90
25504;DHT22;13410;52.114;5.718;2024-03-29T11:08:06;19.10;99.90
25504;DHT22;13410;52.114;5.718;2024-03-29T11:10:47;19.20;99.90
25504;DHT22;13410;52.114;5.718;2024-03-29T11:13:27;19.50;99.90
25504;DHT22;13410;52.114;5.718;2024-03-29T11:15:59;19.50;99.90
25504;DHT22;13410;52.114;5.718;2024-03-29T11:18:30;19.80;99.90
25504;DHT22;13410;52.114;5.718;2024-03-29T11:20:57;20.00;99.90
25504;DHT22;13410;52.114;5.718;2024-03-29T11:23:26;20.30;99.90
25504;DHT22;13410;52.114;5.718;2024-03-29T11:25:57;20.30;99.90
25504;DHT22;13410;52.114;5.718;2024-03-29T11:28:29;20.40;99.90
25504;DHT22;13410;52.114;5.718;2024-03-29T11:31:05;20.10;99.90
25504;DHT22;13410;52.114;5.718;2024-03-29T11:36:22;19.80;99.90
25504;DHT22;13410;52.114;5.718;2024-03-29T11:38:54;20.00;99.90
25504;DHT22;13410;52.114;5.718;2024-03-29T11:41:22;19.90;99.90
25504;DHT22;13410;52.114;5.718;2024-03-29T11:43:55;20.10;99.90
25504;DHT22;13410;52.114;5.718;2024-03-29T11:46:22;20.10;99.90
25504;DHT22;13410;52.114;5.718;2024-03-29T11:48:48;20.00;99.90
25504;DHT22;13410;52.114;5.718;2024-03-29T11:51:22;19.90;99.90
25504;DHT22;13410;52.114;5.718;2024-03-29T11:53:49;19.80;99.90
25504;DHT22;13410;52.114;5.718;2024-03-29T11:56:19;19.50;99.90
25504;DHT22;13410;52.114;5.718;2024-03-29T11:58:46;19.70;99.90
25504;DHT22;13410;52.114;5.718;2024-03-29T12:01:15;19.80;99.90
25504;DHT22;13410;52.114;5.718;2024-03-29T12:03:42;19.80;99.90
25504;DHT22;13410;52.114;5.718;2024-03-29T12:06:09;20.10;99.90
25504;DHT22;13410;52.114;5.718;2024-03-29T12:08:39;20.40;99.90
25504;DHT22;13410;52.114;5.718;2024-03-29T12:11:06;20.60;99.90
25504;DHT22;13410;52.114;5.718;2024-03-29T12:13:32;20.50;99.90
25504;DHT22;13410;52.114;5.718;2024-03-29T12:16:00;20.30;99.90
25504;DHT22;13410;52.114;5.718;2024-03-29T12:18:26;20.20;99.90
25504;DHT22;13410;52.114;5.718;2024-03-29T12:20:57;20.10;99.90
25504;DHT22;13410;52.114;5.718;2024-03-29T12:23:23;20.10;99.90
25504;DHT22;13410;52.114;5.718;2024-03-29T12:25:50;20.00;99.90
25504;DHT22;13410;52.114;5.718;2024-03-29T12:28:17;20.00;99.90
25504;DHT22;13410;52.114;5.718;2024-03-29T12:30:45;20.10;99.90
25504;DHT22;13410;52.114;5.718;2024-03-29T12:33:15;20.10;99.90
25504;DHT22;13410;52.114;5.718;2024-03-29T12:35:43;20.10;99.90
25504;DHT22;13410;52.114;5.718;2024-03-29T12:38:11;20.10;99.90
25504;DHT22;13410;52.114;5.718;2024-03-29T12:40:38;20.20;99.90
25504;DHT22;13410;52.114;5.718;2024-03-29T12:43:07;20.40;99.90
25504;DHT22;13410;52.114;5.718;2024-03-29T12:45:41;20.50;99.90
25504;DHT22;13410;52.114;5.718;2024-03-29T12:48:22;20.40;99.90
25504;DHT22;13410;52.114;5.718;2024-03-29T12:50:49;20.40;99.90
25504;DHT22;13410;52.114;5.718;2024-03-29T12:53:15;20.50;99.90
25504;DHT22;13410;52.114;5.718;2024-03-29T12:55:44;20.60;99.90
25504;DHT22;13410;52.114;5.718;2024-03-29T12:58:15;20.50;99.90
25504;DHT22;13410;52.114;5.718;2024-03-29T13:00:45;20.60;99.90
25504;DHT22;13410;52.114;5.718;2024-03-29T13:03:11;20.50;99.90
25504;DHT22;13410;52.114;5.718;2024-03-29T13:05:39;20.60;99.90
25504;DHT22;13410;52.114;5.718;2024-03-29T13:08:14;20.70;99.90
25504;DHT22;13410;52.114;5.718;2024-03-29T13:10:43;20.80;99.90
25504;DHT22;13410;52.114;5.718;2024-03-29T13:13:09;20.80;99.90
25504;DHT22;13410;52.114;5.718;2024-03-29T13:15:37;20.90;99.90
25504;DHT22;13410;52.114;5.718;2024-03-29T13:18:04;21.10;99.90
25504;DHT22;13410;52.114;5.718;2024-03-29T13:20:30;21.10;99.90
25504;DHT22;13410;52.114;5.718;2024-03-29T13:22:58;21.00;99.90
25504;DHT22;13410;52.114;5.718;2024-03-29T13:25:23;21.10;99.90
25504;DHT22;13410;52.114;5.718;2024-03-29T13:27:54;21.00;99.90
25504;DHT22;13410;52.114;5.718;2024-03-29T13:30:24;21.00;99.90
25504;DHT22;13410;52.114;5.718;2024-03-29T13:32:52;20.90;99.90
25504;DHT22;13410;52.114;5.718;2024-03-29T13:35:18;20.90;99.90
25504;DHT22;13410;52.114;5.718;2024-03-29T13:37:48;20.80;99.90
25504;DHT22;13410;52.114;5.718;2024-03-29T13:40:20;21.10;99.90
25504;DHT22;13410;52.114;5.718;2024-03-29T13:42:48;21.10;99.90
25504;DHT22;13410;52.114;5.718;2024-03-29T13:45:14;21.30;99.90
25504;DHT22;13410;52.114;5.718;2024-03-29T13:47:41;21.30;99.90
25504;DHT22;13410;52.114;5.718;2024-03-29T13:50:10;21.40;99.90
25504;DHT22;13410;52.114;5.718;2024-03-29T13:52:37;21.50;99.90
25504;DHT22;13410;52.114;5.718;2024-03-29T13:55:05;21.40;99.90
25504;DHT22;13410;52.114;5.718;2024-03-29T13:57:31;21.20;99.90
25504;DHT22;13410;52.114;5.718;2024-03-29T13:59:57;21.00;99.90
25504;DHT22;13410;52.114;5.718;2024-03-29T14:02:24;21.00;99.90
25504;DHT22;13410;52.114;5.718;2024-03-29T14:04:53;20.90;99.90
25504;DHT22;13410;52.114;5.718;2024-03-29T14:07:19;20.70;99.90
25504;DHT22;13410;52.114;5.718;2024-03-29T14:09:45;20.70;99.90
25504;DHT22;13410;52.114;5.718;2024-03-29T14:12:11;21.00;99.90
25504;DHT22;13410;52.114;5.718;2024-03-29T14:14:37;21.30;99.90
25504;DHT22;13410;52.114;5.718;2024-03-29T14:17:03;21.30;99.90
25504;DHT22;13410;52.114;5.718;2024-03-29T14:19:32;21.10;99.90
25504;DHT22;13410;52.114;5.718;2024-03-29T14:21:59;21.10;99.90
25504;DHT22;13410;52.114;5.718;2024-03-29T14:24:25;21.10;99.90
25504;DHT22;13410;52.114;5.718;2024-03-29T14:26:52;21.00;99.90
25504;DHT22;13410;52.114;5.718;2024-03-29T14:29:18;21.10;99.90
25504;DHT22;13410;52.114;5.718;2024-03-29T14:31:50;21.20;99.90
25504;DHT22;13410;52.114;5.718;2024-03-29T14:34:16;21.30;99.90
25504;DHT22;13410;52.114;5.718;2024-03-29T14:36:42;21.40;99.90
25504;DHT22;13410;52.114;5.718;2024-03-29T14:39:08;21.40;99.90
25504;DHT22;13410;52.114;5.718;2024-03-29T14:41:35;21.50;99.90
25504;DHT22;13410;52.114;5.718;2024-03-29T14:44:02;21.70;99.90
25504;DHT22;13410;52.114;5.718;2024-03-29T14:46:28;21.90;99.90
25504;DHT22;13410;52.114;5.718;2024-03-29T14:48:53;22.00;99.90
25504;DHT22;13410;52.114;5.718;2024-03-29T14:51:19;21.90;99.90
25504;DHT22;13410;52.114;5.718;2024-03-29T14:53:45;22.00;99.90
25504;DHT22;13410;52.114;5.718;2024-03-29T14:56:16;22.00;99.90
25504;DHT22;13410;52.114;5.718;2024-03-29T14:58:41;21.90;99.90
25504;DHT22;13410;52.114;5.718;2024-03-29T15:01:09;21.90;99.90
25504;DHT22;13410;52.114;5.718;2024-03-29T15:03:34;21.80;99.90
25504;DHT22;13410;52.114;5.718;2024-03-29T15:06:00;21.70;99.90
25504;DHT22;13410;52.114;5.718;2024-03-29T15:08:26;21.50;99.90
25504;DHT22;13410;52.114;5.718;2024-03-29T15:10:58;21.50;99.90
25504;DHT22;13410;52.114;5.718;2024-03-29T15:13:24;21.60;99.90
25504;DHT22;13410;52.114;5.718;2024-03-29T15:15:56;21.60;99.90
25504;DHT22;13410;52.114;5.718;2024-03-29T15:18:22;21.50;99.90
25504;DHT22;13410;52.114;5.718;2024-03-29T15:21:01;21.40;99.90
25504;DHT22;13410;52.114;5.718;2024-03-29T15:23:28;21.30;99.90
25504;DHT22;13410;52.114;5.718;2024-03-29T15:25:55;21.20;99.90
25504;DHT22;13410;52.114;5.718;2024-03-29T15:28:23;21.10;99.90
25504;DHT22;13410;52.114;5.718;2024-03-29T15:31:13;21.10;99.90
25504;DHT22;13410;52.114;5.718;2024-03-29T15:33:43;21.20;99.90